Time;durP1;ratioP1;P1;durP2;ratioP2;P2;SDS_P1;SDS_P2;PMS_P1;PMS_P2;Temp;Humidity;BMP_temperature;BMP_pressure;BME280_temperature;BME280_humidity;BME280_pressure;Samples;Min_cycle;Max_cycle;Signal;HPM_P1;HPM_P2
2021/06/26 00:01:17;;;;;;;20.35;15.15;;;;;;;18.64;87.98;98305.98;1732361;82;28071;-89
2021/06/26 00:03:43;;;;;;;18.90;14.23;;;;;;;18.64;87.98;98308.63;1733497;80;28160;-85
2021/06/26 00:06:10;;;;;;;20.85;14.53;;;;;;;18.61;88.02;98304.95;1733432;82;28175;-85
2021/06/26 00:08:37;;;;;;;18.52;14.63;;;;;;;18.56;88.04;98316.05;1732611;82;28103;-89
2021/06/26 00:11:03;;;;;;;17.07;14.07;;;;;;;18.60;88.07;98315.25;1729750;82;28021;-89
2021/06/26 00:13:30;;;;;;;18.42;14.38;;;;;;;18.61;88.11;98316.39;1732512;82;28074;-88
2021/06/26 00:16:03;;;;;;;18.87;13.95;;;;;;;18.62;88.21;98317.23;1735851;82;28086;-89
2021/06/26 00:18:32;;;;;;;17.17;14.35;;;;;;;18.62;88.22;98312.76;1734089;82;28184;-89
2021/06/26 00:20:58;;;;;;;16.12;12.85;;;;;;;18.64;88.25;98315.26;1730793;82;28174;-88
2021/06/26 00:23:26;;;;;;;18.70;14.60;;;;;;;18.70;88.30;98322.57;1722939;81;27995;-85
2021/06/26 00:25:52;;;;;;;21.20;15.70;;;;;;;18.76;88.34;98327.23;1719091;82;28484;-85
2021/06/26 00:28:19;;;;;;;20.55;14.35;;;;;;;18.83;88.35;98326.06;1725723;82;28110;-90
2021/06/26 00:30:46;;;;;;;15.98;12.93;;;;;;;18.84;88.37;98323.76;1726093;81;28006;-89
2021/06/26 00:33:12;;;;;;;19.15;12.40;;;;;;;18.79;88.36;98329.55;1727412;81;28038;-89
2021/06/26 00:35:39;;;;;;;16.27;13.40;;;;;;;18.70;88.37;98327.88;1729588;82;28119;-87
2021/06/26 00:38:05;;;;;;;15.53;12.33;;;;;;;18.63;88.37;98329.00;1721550;81;28114;-87
2021/06/26 00:40:31;;;;;;;17.32;11.93;;;;;;;18.67;88.36;98332.98;1727770;82;28106;-88
2021/06/26 00:42:59;;;;;;;17.05;13.18;;;;;;;18.75;88.40;98339.66;1722715;81;28159;-88
2021/06/26 00:45:26;;;;;;;17.30;11.85;;;;;;;18.73;88.42;98339.47;1730431;81;28031;-88
2021/06/26 00:47:52;;;;;;;15.53;12.33;;;;;;;18.74;88.42;98341.97;1726493;82;28035;-88
2021/06/26 00:50:22;;;;;;;17.07;13.00;;;;;;;18.74;88.45;98343.30;1729478;82;28113;-84
2021/06/26 00:52:49;;;;;;;16.57;13.20;;;;;;;18.77;88.48;98346.10;1720010;82;28113;-84
2021/06/26 00:55:16;;;;;;;15.28;12.75;;;;;;;18.78;88.50;98341.97;1722050;82;28139;-84
2021/06/26 00:57:49;;;;;;;14.78;11.95;;;;;;;18.77;88.50;98345.61;1721536;82;28085;-87
2021/06/26 01:00:18;;;;;;;14.83;12.33;;;;;;;18.78;88.48;98345.12;1726246;82;28007;-87
2021/06/26 01:02:44;;;;;;;13.95;11.43;;;;;;;18.80;88.50;98344.47;1733386;82;28113;-87
2021/06/26 01:05:15;;;;;;;16.12;12.13;;;;;;;18.81;88.50;98339.51;1733273;82;28111;-87
2021/06/26 01:07:41;;;;;;;13.23;9.77;;;;;;;18.84;88.50;98345.80;1728978;82;28121;-87
2021/06/26 01:10:09;;;;;;;16.97;13.00;;;;;;;18.79;88.50;98339.66;1732919;82;28125;-87
2021/06/26 01:12:36;;;;;;;14.60;12.20;;;;;;;18.75;88.48;98346.28;1736313;81;28059;-87
2021/06/26 01:15:05;;;;;;;15.78;12.37;;;;;;;18.74;88.49;98343.78;1744213;81;28167;-87
2021/06/26 01:17:31;;;;;;;19.42;13.45;;;;;;;18.71;88.47;98340.95;1743288;81;28044;-87
2021/06/26 01:20:00;;;;;;;18.02;12.58;;;;;;;18.68;88.47;98338.63;1738300;81;28081;-87
2021/06/26 01:22:36;;;;;;;20.40;13.40;;;;;;;18.72;88.46;98334.66;1741037;81;27990;-87
2021/06/26 01:25:00;;;;;;;17.50;13.15;;;;;;;18.78;88.47;98331.86;1734457;81;28081;-88
2021/06/26 01:27:29;;;;;;;14.45;11.97;;;;;;;18.83;88.49;98334.02;1742443;81;28018;-87
2021/06/26 01:29:55;;;;;;;16.77;13.05;;;;;;;18.85;88.49;98330.23;1738344;81;28147;-87
2021/06/26 01:32:22;;;;;;;16.48;13.85;;;;;;;18.80;88.46;98332.55;1733046;81;28086;-87
2021/06/26 01:34:48;;;;;;;16.67;11.85;;;;;;;18.77;88.48;98326.22;1743144;81;28132;-87
2021/06/26 01:37:15;;;;;;;19.15;13.28;;;;;;;18.76;88.45;98325.91;1746580;81;28003;-87
2021/06/26 01:39:41;;;;;;;15.13;12.78;;;;;;;18.74;88.44;98329.20;1743967;81;28100;-87
2021/06/26 01:42:08;;;;;;;16.50;13.32;;;;;;;18.66;88.42;98323.86;1744027;81;28104;-87
2021/06/26 01:44:35;;;;;;;19.17;14.63;;;;;;;18.62;88.45;98331.80;1733994;80;28096;-87
2021/06/26 01:47:07;;;;;;;17.30;13.65;;;;;;;18.57;88.44;98323.02;1749393;80;28075;-87
2021/06/26 01:49:36;;;;;;;16.27;12.40;;;;;;;18.57;88.44;98325.66;1748069;81;28144;-87
2021/06/26 01:52:03;;;;;;;17.77;13.38;;;;;;;18.55;88.44;98322.33;1749292;81;28130;-87
2021/06/26 01:54:31;;;;;;;18.20;13.98;;;;;;;18.57;88.49;98323.02;1749397;81;28071;-87
2021/06/26 01:56:57;;;;;;;16.93;13.83;;;;;;;18.66;88.53;98332.65;1749559;80;28099;-87
2021/06/26 01:59:24;;;;;;;17.92;13.58;;;;;;;18.64;88.54;98335.97;1749365;81;28010;-87
2021/06/26 02:01:50;;;;;;;22.32;15.68;;;;;;;18.60;88.57;98333.81;1731987;82;28081;-87
2021/06/26 02:04:23;;;;;;;18.55;14.38;;;;;;;18.63;88.59;98334.80;1733389;82;28066;-87
2021/06/26 02:06:49;;;;;;;17.65;13.98;;;;;;;18.63;88.60;98336.95;1758302;81;28125;-88
2021/06/26 02:09:16;;;;;;;21.95;13.90;;;;;;;18.61;88.62;98336.77;1720212;83;28077;-88
2021/06/26 02:11:42;;;;;;;18.62;14.25;;;;;;;18.62;88.63;98340.59;1761983;80;28077;-87
2021/06/26 02:14:08;;;;;;;19.35;14.78;;;;;;;18.57;88.66;98334.94;1762991;80;28163;-88
2021/06/26 02:16:35;;;;;;;23.98;15.68;;;;;;;18.56;88.66;98337.74;1733128;82;28070;-87
2021/06/26 02:19:01;;;;;;;22.17;15.60;;;;;;;18.62;88.70;98330.48;1721707;82;28087;-87
2021/06/26 02:21:31;;;;;;;18.67;14.95;;;;;;;18.60;88.70;98337.78;1739913;81;28105;-88
2021/06/26 02:23:57;;;;;;;18.85;14.83;;;;;;;18.52;88.70;98334.56;1742268;81;28085;-88
2021/06/26 02:26:34;;;;;;;19.55;16.02;;;;;;;18.47;88.72;98336.86;1745407;81;28078;-88
2021/06/26 02:29:05;;;;;;;20.40;14.98;;;;;;;18.48;88.72;98346.48;1742946;81;28083;-88
2021/06/26 02:31:32;;;;;;;21.57;16.35;;;;;;;18.56;88.78;98345.69;1744921;81;28100;-88
2021/06/26 02:33:58;;;;;;;22.17;17.20;;;;;;;18.58;88.77;98345.05;1743739;81;28137;-88
2021/06/26 02:36:24;;;;;;;24.77;18.27;;;;;;;18.63;88.79;98352.86;1744018;81;28084;-88
2021/06/26 02:38:51;;;;;;;23.73;19.00;;;;;;;18.62;88.83;98353.84;1729681;81;28047;-88
2021/06/26 02:41:28;;;;;;;30.12;21.12;;;;;;;18.61;88.82;98356.65;1742758;81;28074;-88
2021/06/26 02:43:54;;;;;;;28.65;21.00;;;;;;;18.55;88.81;98355.95;1741087;81;28022;-89
2021/06/26 02:46:24;;;;;;;26.48;19.32;;;;;;;18.51;88.83;98357.23;1744885;81;28084;-87
2021/06/26 02:48:50;;;;;;;28.47;20.50;;;;;;;18.43;88.80;98350.09;1742710;81;28193;-88
2021/06/26 02:51:17;;;;;;;26.00;19.17;;;;;;;18.36;88.79;98356.52;1741727;81;28010;-88
2021/06/26 02:53:43;;;;;;;26.17;19.12;;;;;;;18.38;88.82;98359.82;1742299;81;28036;-88
2021/06/26 02:56:13;;;;;;;31.10;21.48;;;;;;;18.46;88.85;98360.37;1741458;81;28081;-88
2021/06/26 02:58:48;;;;;;;31.62;21.82;;;;;;;18.46;88.86;98354.23;1742642;82;28066;-88
2021/06/26 03:01:15;;;;;;;27.93;21.48;;;;;;;18.44;88.93;98361.01;1740268;81;27994;-88
2021/06/26 03:03:42;;;;;;;29.85;21.17;;;;;;;18.38;88.91;98359.82;1739633;82;28145;-88
2021/06/26 03:06:08;;;;;;;31.52;21.73;;;;;;;18.34;88.93;98362.45;1738090;82;28148;-88
2021/06/26 03:08:39;;;;;;;31.85;21.68;;;;;;;18.32;88.99;98364.45;1739640;82;28183;-88
2021/06/26 03:11:09;;;;;;;30.75;21.87;;;;;;;18.37;89.02;98366.62;1715493;82;28003;-88
2021/06/26 03:13:35;;;;;;;30.17;22.20;;;;;;;18.39;89.05;98360.16;1741779;82;28116;-88
2021/06/26 03:16:02;;;;;;;34.92;23.12;;;;;;;18.38;89.07;98359.02;1738874;82;28098;-88
2021/06/26 03:18:28;;;;;;;32.25;23.18;;;;;;;18.42;89.09;98368.80;1736393;82;28105;-88
2021/06/26 03:20:55;;;;;;;35.10;24.52;;;;;;;18.43;89.13;98367.33;1740585;82;28164;-88
2021/06/26 03:23:22;;;;;;;34.30;23.15;;;;;;;18.38;89.15;98360.34;1741469;82;28051;-87
2021/06/26 03:25:48;;;;;;;34.13;23.87;;;;;;;18.39;89.14;98366.79;1740027;81;28121;-88
2021/06/26 03:28:16;;;;;;;30.40;23.22;;;;;;;18.30;89.12;98370.39;1739687;82;27999;-88
2021/06/26 03:30:43;;;;;;;36.75;24.40;;;;;;;18.27;89.11;98373.34;1740724;82;28085;-88
2021/06/26 03:33:10;;;;;;;32.42;24.50;;;;;;;18.32;89.13;98378.19;1741233;82;28083;-88
2021/06/26 03:35:39;;;;;;;35.60;24.55;;;;;;;18.30;89.15;98376.19;1739633;80;28160;-88
2021/06/26 03:38:05;;;;;;;37.98;24.45;;;;;;;18.29;89.21;98383.30;1742400;82;28079;-88
2021/06/26 03:40:32;;;;;;;35.08;23.80;;;;;;;18.30;89.20;98379.67;1738181;82;28077;-88
2021/06/26 03:43:10;;;;;;;37.15;24.77;;;;;;;18.34;89.24;98382.33;1736478;82;28090;-88
2021/06/26 03:45:36;;;;;;;38.10;24.43;;;;;;;18.33;89.30;98382.48;1738595;82;28100;-88
2021/06/26 03:48:03;;;;;;;38.33;25.65;;;;;;;18.32;89.35;98382.17;1738365;82;28107;-88
2021/06/26 03:50:33;;;;;;;36.95;23.18;;;;;;;18.31;89.40;98378.69;1734994;82;28090;-88
2021/06/26 03:53:01;;;;;;;37.73;25.68;;;;;;;18.39;89.46;98380.53;1740168;82;28196;-88
2021/06/26 03:55:28;;;;;;;35.55;24.43;;;;;;;18.49;89.49;98378.63;1738765;81;32635;-88
2021/06/26 03:57:55;;;;;;;35.00;25.05;;;;;;;18.57;89.56;98374.70;1735328;82;28077;-88
2021/06/26 04:00:21;;;;;;;37.05;25.10;;;;;;;18.51;89.55;98383.73;1738187;82;28066;-88
2021/06/26 04:02:48;;;;;;;35.43;23.73;;;;;;;18.49;89.53;98374.64;1741152;82;28101;-88
2021/06/26 04:05:14;;;;;;;42.30;26.42;;;;;;;18.52;89.61;98377.45;1741470;82;27984;-88
2021/06/26 04:07:41;;;;;;;37.50;25.85;;;;;;;18.51;89.65;98377.95;1742930;82;28038;-88
2021/06/26 04:10:08;;;;;;;;;;;;;;;18.56;89.67;98375.69;1750717;82;24430;-88
2021/06/26 04:12:34;;;;;;;34.20;25.37;;;;;;;18.57;89.67;98381.33;1743671;82;21946;-88
2021/06/26 04:15:00;;;;;;;38.58;25.82;;;;;;;18.63;89.65;98384.67;1743119;82;28070;-88
2021/06/26 04:17:28;;;;;;;36.63;24.80;;;;;;;18.60;89.67;98383.64;1743382;82;28135;-88
2021/06/26 04:19:54;;;;;;;38.98;25.10;;;;;;;18.55;89.64;98380.64;1743546;82;28042;-88
2021/06/26 04:22:27;;;;;;;36.30;25.15;;;;;;;18.55;89.66;98377.98;1743306;81;28109;-88
2021/06/26 04:25:06;;;;;;;37.80;24.82;;;;;;;18.56;89.66;98377.01;1743302;82;28141;-88
2021/06/26 04:27:38;;;;;;;32.23;23.98;;;;;;;18.57;89.64;98378.67;1742124;82;28207;-88
2021/06/26 04:30:06;;;;;;;35.65;23.90;;;;;;;18.60;89.67;98374.37;1738760;82;28160;-88
2021/06/26 04:32:34;;;;;;;35.28;24.20;;;;;;;18.72;89.70;98377.57;1743073;82;28100;-88
2021/06/26 04:35:00;;;;;;;36.25;25.60;;;;;;;18.78;89.71;98367.66;1740815;82;28072;-88
2021/06/26 04:37:28;;;;;;;36.65;24.45;;;;;;;18.75;89.72;98367.98;1743196;82;28088;-88
2021/06/26 04:39:55;;;;;;;36.42;25.80;;;;;;;18.69;89.73;98354.05;1739667;82;28085;-88
2021/06/26 04:42:21;;;;;;;36.23;25.15;;;;;;;18.71;89.73;98364.00;1742435;82;28042;-88
2021/06/26 04:44:48;;;;;;;34.80;25.27;;;;;;;18.71;89.75;98364.00;1744733;81;28108;-88
2021/06/26 04:47:15;;;;;;;35.73;24.80;;;;;;;18.76;89.76;98355.88;1746153;81;28030;-88
2021/06/26 04:49:41;;;;;;;35.50;24.85;;;;;;;18.76;89.75;98355.88;1742449;81;28133;-88
2021/06/26 04:52:09;;;;;;;29.60;21.25;;;;;;;18.71;89.75;98351.55;1744890;81;28062;-88
2021/06/26 04:54:36;;;;;;;31.60;23.42;;;;;;;18.73;89.78;98352.72;1744049;81;28103;-88
2021/06/26 04:57:02;;;;;;;31.27;22.60;;;;;;;18.71;89.78;98346.25;1743467;81;28108;-88
2021/06/26 04:59:29;;;;;;;31.73;24.63;;;;;;;18.67;89.77;98352.88;1744769;82;28105;-88
2021/06/26 05:01:55;;;;;;;32.03;22.98;;;;;;;18.66;89.78;98345.06;1742488;81;28034;-88
2021/06/26 05:04:22;;;;;;;34.73;24.30;;;;;;;18.64;89.81;98351.88;1743320;81;28074;-88
2021/06/26 05:06:49;;;;;;;30.70;23.18;;;;;;;18.57;89.77;98354.82;1742347;81;28111;-88
2021/06/26 05:09:15;;;;;;;34.08;23.90;;;;;;;18.62;89.80;98355.66;1744994;81;28073;-88
2021/06/26 05:11:42;;;;;;;37.90;24.47;;;;;;;18.61;89.83;98362.78;1742355;81;28058;-88
2021/06/26 05:14:09;;;;;;;32.58;23.52;;;;;;;18.65;89.85;98355.36;1742674;81;28116;-88
2021/06/26 05:16:36;;;;;;;33.35;23.95;;;;;;;18.62;89.86;98362.29;1745095;81;28111;-88
2021/06/26 05:19:02;;;;;;;31.05;23.57;;;;;;;18.60;89.89;98358.47;1744897;81;28108;-88
2021/06/26 05:21:38;;;;;;;34.08;23.38;;;;;;;18.60;89.88;98369.06;1728131;82;28133;-88
2021/06/26 05:24:05;;;;;;;33.05;23.15;;;;;;;18.65;89.92;98364.14;1743765;80;28144;-88
2021/06/26 05:26:37;;;;;;;31.57;22.85;;;;;;;18.73;89.99;98362.84;1744661;81;28081;-88
2021/06/26 05:29:04;;;;;;;30.40;23.30;;;;;;;18.76;90.00;98358.53;1745619;81;28140;-88
2021/06/26 05:31:30;;;;;;;31.50;22.87;;;;;;;18.72;90.01;98367.80;1742808;81;28093;-88
2021/06/26 05:33:57;;;;;;;36.25;23.55;;;;;;;18.67;89.99;98370.10;1715531;82;28061;-88
2021/06/26 05:36:23;;;;;;;34.05;23.02;;;;;;;18.66;89.99;98368.44;1743076;82;28141;-88
2021/06/26 05:38:50;;;;;;;27.30;21.35;;;;;;;18.63;89.97;98370.09;1743935;81;28146;-88
2021/06/26 05:41:17;;;;;;;28.80;22.13;;;;;;;18.69;90.00;98362.83;1743009;81;28213;-88
2021/06/26 05:43:43;;;;;;;30.62;22.55;;;;;;;18.72;90.02;98361.17;1743997;81;28073;-88
2021/06/26 05:46:11;;;;;;;28.77;21.57;;;;;;;18.71;90.02;98361.35;1744185;81;28125;-88
2021/06/26 05:48:37;;;;;;;27.82;22.67;;;;;;;18.67;90.00;98364.80;1744662;81;28486;-88
2021/06/26 05:51:04;;;;;;;31.35;22.73;;;;;;;18.78;89.99;98363.68;1743437;81;28287;-88
2021/06/26 05:53:32;;;;;;;28.92;22.37;;;;;;;18.85;90.00;98366.52;1741652;82;28076;-88
2021/06/26 05:55:59;;;;;;;28.42;22.25;;;;;;;18.86;90.02;98369.02;1742812;81;28137;-88
2021/06/26 05:58:28;;;;;;;31.55;22.95;;;;;;;18.90;90.06;98366.38;1744101;81;28072;-88
2021/06/26 06:01:01;;;;;;;31.42;23.07;;;;;;;18.85;89.99;98370.01;1743662;81;28082;-88
2021/06/26 06:03:27;;;;;;;28.45;22.75;;;;;;;18.83;89.97;98378.61;1742254;81;28059;-88
2021/06/26 06:05:56;;;;;;;28.35;22.70;;;;;;;18.86;89.99;98378.80;1745852;81;28002;-88
2021/06/26 06:08:22;;;;;;;28.55;23.20;;;;;;;18.87;89.98;98378.65;1742651;81;28081;-88
2021/06/26 06:10:52;;;;;;;30.70;22.62;;;;;;;18.77;90.00;98381.90;1735495;81;28139;-88
2021/06/26 06:13:21;;;;;;;28.98;22.07;;;;;;;18.63;89.91;98386.48;1741736;81;28146;-88
2021/06/26 06:15:49;;;;;;;29.00;21.55;;;;;;;18.57;89.83;98379.17;1729239;80;28012;-88
2021/06/26 06:18:17;;;;;;;29.07;22.02;;;;;;;18.53;89.81;98382.61;1749345;81;28073;-88
2021/06/26 06:20:43;;;;;;;27.70;21.65;;;;;;;18.50;89.80;98380.75;1749867;81;28025;-88
2021/06/26 06:23:10;;;;;;;30.20;21.55;;;;;;;18.51;89.84;98381.92;1749441;81;28067;-88
2021/06/26 06:25:37;;;;;;;27.17;21.48;;;;;;;18.52;89.83;98384.08;1749370;81;28163;-88
2021/06/26 06:28:04;;;;;;;27.50;20.62;;;;;;;18.50;89.82;98389.53;1749349;81;28133;-88
2021/06/26 06:30:32;;;;;;;28.05;20.70;;;;;;;18.52;89.88;98384.08;1749608;81;28078;-88
2021/06/26 06:33:00;;;;;;;28.83;20.08;;;;;;;18.52;89.90;98380.94;1748721;81;28055;-88
2021/06/26 06:35:27;;;;;;;27.58;20.35;;;;;;;18.57;89.94;98379.17;1749482;81;28105;-87
2021/06/26 06:37:54;;;;;;;29.25;20.88;;;;;;;18.56;89.97;98385.45;1749239;81;28053;-87
2021/06/26 06:40:21;;;;;;;24.18;20.30;;;;;;;18.54;90.00;98388.28;1749213;81;28111;-87
2021/06/26 06:42:48;;;;;;;24.40;19.27;;;;;;;18.50;89.99;98388.70;1749242;81;28120;-87
2021/06/26 06:45:20;;;;;;;24.35;19.25;;;;;;;18.50;90.04;98388.20;1749177;81;28114;-87
2021/06/26 06:47:44;;;;;;;25.37;18.40;;;;;;;18.50;90.05;98388.70;1748653;81;28005;-88
2021/06/26 06:50:11;;;;;;;29.10;21.10;;;;;;;18.53;90.08;98389.23;1747465;81;28075;-87
2021/06/26 06:52:38;;;;;;;26.10;19.25;;;;;;;18.63;90.15;98386.00;1749152;81;28674;-87
2021/06/26 06:55:06;;;;;;;25.17;19.42;;;;;;;18.74;90.23;98392.84;1748272;81;28105;-88
2021/06/26 06:57:42;;;;;;;23.85;17.75;;;;;;;18.77;90.29;98397.80;1749228;81;28148;-87
2021/06/26 07:00:10;;;;;;;26.45;19.45;;;;;;;18.74;90.26;98399.46;1747009;80;28083;-88
2021/06/26 07:02:37;;;;;;;22.48;18.90;;;;;;;18.69;90.24;98400.44;1755644;80;28067;-87
2021/06/26 07:05:10;;;;;;;23.60;17.57;;;;;;;18.74;90.26;98403.44;1720507;83;27992;-87
2021/06/26 07:07:37;;;;;;;25.32;17.73;;;;;;;18.75;90.21;98405.94;1740694;81;28057;-87
2021/06/26 07:10:05;;;;;;;20.68;17.10;;;;;;;18.76;90.23;98405.45;1738599;81;28095;-87
2021/06/26 07:12:33;;;;;;;22.85;17.55;;;;;;;18.69;90.18;98407.90;1736042;80;28101;-90
2021/06/26 07:15:00;;;;;;;19.42;15.53;;;;;;;18.65;90.12;98413.19;1733802;81;28140;-91
2021/06/26 07:17:33;;;;;;;22.95;17.05;;;;;;;18.62;90.09;98406.03;1737853;81;28160;-91
2021/06/26 07:20:01;;;;;;;19.60;16.42;;;;;;;18.56;90.04;98406.16;1738899;81;28089;-90
2021/06/26 07:22:42;;;;;;;21.62;18.27;;;;;;;18.55;89.97;98413.77;1739376;82;28006;-91
2021/06/26 07:25:09;;;;;;;24.12;17.42;;;;;;;18.58;89.95;98412.64;1739648;81;28136;-90
2021/06/26 07:27:37;;;;;;;23.62;17.62;;;;;;;18.61;89.98;98417.61;1740267;81;28105;-90
2021/06/26 07:30:05;;;;;;;22.60;16.50;;;;;;;18.63;89.97;98415.16;1735239;81;28061;-90
2021/06/26 07:32:46;;;;;;;19.62;17.35;;;;;;;18.65;89.99;98417.16;1740489;81;28069;-90
2021/06/26 07:35:14;;;;;;;14.38;11.93;;;;;;;18.66;90.02;98417.48;1735248;81;28108;-90
2021/06/26 07:37:43;;;;;;;21.25;17.77;;;;;;;18.69;90.02;98411.88;1737145;81;28081;-90
2021/06/26 07:40:18;;;;;;;19.30;16.32;;;;;;;18.72;90.02;98412.03;1740070;81;28132;-90
2021/06/26 07:42:46;;;;;;;22.15;16.07;;;;;;;18.76;90.03;98408.91;1738170;81;28112;-90
2021/06/26 07:45:13;;;;;;;20.88;15.68;;;;;;;18.86;90.10;98415.92;1731711;81;28077;-90
2021/06/26 07:48:16;;;;;;;17.85;15.13;;;;;;;18.90;90.14;98409.30;1738256;81;28089;-90
2021/06/26 07:50:50;;;;;;;18.57;15.68;;;;;;;18.98;90.15;98407.53;1735962;82;28093;-91
2021/06/26 07:53:13;;;;;;;20.08;16.73;;;;;;;19.10;90.19;98401.41;1738830;80;28100;-90
2021/06/26 07:55:39;;;;;;;20.45;15.15;;;;;;;19.24;90.25;98404.78;1733174;82;28143;-90
2021/06/26 07:58:21;;;;;;;18.67;16.00;;;;;;;19.35;90.32;98408.94;1734839;82;28152;-90
2021/06/26 08:01:01;;;;;;;19.40;16.25;;;;;;;19.41;90.29;98399.84;1733247;82;27994;-90
2021/06/26 08:03:35;;;;;;;21.17;16.97;;;;;;;19.43;90.18;98403.63;1723367;81;28210;-91
2021/06/26 08:06:33;;;;;;;19.15;16.62;;;;;;;19.48;90.10;98400.02;1729135;81;28057;-90
2021/06/26 08:09:12;;;;;;;19.67;15.83;;;;;;;19.64;90.11;98402.20;1731887;82;28098;-91
2021/06/26 08:11:50;;;;;;;20.70;16.37;;;;;;;19.80;90.08;98396.05;1730958;82;28087;-90
2021/06/26 08:14:16;;;;;;;18.25;15.60;;;;;;;19.87;90.04;98394.90;1711162;82;28093;-92
2021/06/26 08:16:46;;;;;;;20.37;17.55;;;;;;;20.01;90.01;98400.39;1735508;82;28081;-91
2021/06/26 08:19:22;;;;;;;18.62;15.28;;;;;;;20.14;89.98;98399.86;1706567;82;28101;-91
2021/06/26 08:21:51;;;;;;;18.80;16.57;;;;;;;20.30;89.97;98393.19;1727468;82;28082;-92
2021/06/26 08:24:22;;;;;;;22.20;16.07;;;;;;;20.32;89.81;98391.23;1712996;82;28086;-92
2021/06/26 08:27:15;;;;;;;16.95;14.70;;;;;;;20.40;89.69;98384.55;1734700;82;28511;-92
2021/06/26 08:29:52;;;;;;;19.00;16.23;;;;;;;20.49;89.65;98384.05;1724351;82;28116;-91
2021/06/26 08:32:22;;;;;;;17.92;14.75;;;;;;;20.54;89.46;98383.03;1736456;82;28146;-92
2021/06/26 08:35:04;;;;;;;17.05;14.95;;;;;;;20.61;89.34;98380.03;1734392;82;28166;-92
2021/06/26 08:37:36;;;;;;;17.85;15.55;;;;;;;20.66;89.18;98382.16;1725536;82;28109;-92
2021/06/26 08:40:04;;;;;;;17.90;15.20;;;;;;;20.71;89.04;98385.97;1738918;82;28054;-91
2021/06/26 08:42:47;;;;;;;17.27;14.95;;;;;;;20.69;88.85;98384.47;1732030;82;28100;-91
2021/06/26 08:45:26;;;;;;;17.80;14.63;;;;;;;20.62;88.64;98379.00;1728620;82;28128;-91
2021/06/26 08:47:54;;;;;;;17.75;14.87;;;;;;;20.54;88.34;98384.86;1731811;82;28116;-89
2021/06/26 08:50:24;;;;;;;16.70;13.93;;;;;;;20.55;88.18;98378.55;1732212;82;28113;-89
2021/06/26 08:52:50;;;;;;;18.70;15.45;;;;;;;20.60;88.04;98382.84;1733302;82;28081;-89
2021/06/26 08:55:17;;;;;;;14.35;12.23;;;;;;;20.65;88.01;98381.33;1733760;82;28062;-89
2021/06/26 08:57:45;;;;;;;17.65;14.75;;;;;;;20.63;87.88;98378.50;1731722;82;28120;-89
2021/06/26 09:00:15;;;;;;;15.50;13.72;;;;;;;20.60;87.68;98381.02;1735402;80;28179;-89
2021/06/26 09:02:42;;;;;;;18.12;13.20;;;;;;;20.64;87.57;98374.34;1737021;82;28062;-89
2021/06/26 09:05:11;;;;;;;14.78;12.85;;;;;;;20.63;87.40;98374.02;1736301;81;28062;-90
2021/06/26 09:07:47;;;;;;;13.53;11.97;;;;;;;20.70;87.26;98376.33;1734417;82;28090;-89
2021/06/26 09:10:16;;;;;;;15.48;12.63;;;;;;;20.83;87.19;98367.30;1730839;82;28163;-89
2021/06/26 09:12:44;;;;;;;14.70;12.47;;;;;;;20.95;87.10;98370.37;1732449;82;28164;-89
2021/06/26 09:15:25;;;;;;;14.47;12.65;;;;;;;21.08;87.05;98369.82;1730621;82;28066;-89
2021/06/26 09:17:54;;;;;;;14.18;12.30;;;;;;;21.22;86.94;98367.80;1732734;82;28478;-89
2021/06/26 09:20:33;;;;;;;15.08;12.35;;;;;;;21.40;86.86;98369.65;1730315;82;28152;-89
2021/06/26 09:23:03;;;;;;;17.20;11.45;;;;;;;21.54;86.75;98364.08;1736288;82;28181;-89
2021/06/26 09:25:34;;;;;;;14.33;10.20;;;;;;;21.63;86.59;98369.16;1729614;81;28105;-89
2021/06/26 09:28:04;;;;;;;11.57;9.90;;;;;;;21.57;86.33;98364.53;1735092;82;28052;-89
2021/06/26 09:30:42;;;;;;;13.22;9.83;;;;;;;21.54;86.06;98368.06;1759429;80;28057;-89
2021/06/26 09:33:17;;;;;;;14.93;11.30;;;;;;;21.49;85.84;98368.58;1727090;82;28105;-89
2021/06/26 09:35:49;;;;;;;14.43;10.88;;;;;;;21.48;85.49;98368.77;1725607;82;28157;-89
2021/06/26 09:38:15;;;;;;;15.53;10.20;;;;;;;21.50;85.25;98366.74;1722435;81;28026;-89
2021/06/26 09:40:42;;;;;;;13.58;10.93;;;;;;;21.51;85.05;98369.23;1756465;81;28271;-89
2021/06/26 09:43:11;;;;;;;14.18;10.53;;;;;;;21.59;84.91;98368.36;1758073;80;28058;-89
2021/06/26 09:45:37;;;;;;;12.13;10.43;;;;;;;21.71;84.83;98362.41;1753497;79;28074;-89
2021/06/26 09:48:07;;;;;;;14.60;10.65;;;;;;;21.87;84.76;98357.47;1732948;82;28083;-89
2021/06/26 09:50:38;;;;;;;12.53;10.65;;;;;;;22.07;84.76;98362.64;1728387;82;28109;-89
2021/06/26 09:53:05;;;;;;;13.50;10.82;;;;;;;22.15;84.64;98360.91;1731637;81;28058;-89
2021/06/26 09:55:46;;;;;;;13.68;10.82;;;;;;;22.16;84.46;98362.03;1734752;82;28084;-89
2021/06/26 09:58:13;;;;;;;12.28;9.15;;;;;;;22.22;84.34;98356.48;1701401;83;28145;-89
2021/06/26 10:00:44;;;;;;;9.58;8.15;;;;;;;22.19;84.13;98355.53;1731122;82;28149;-89
2021/06/26 10:03:13;;;;;;;12.33;9.53;;;;;;;22.17;83.85;98352.20;1730027;82;28494;-89
2021/06/26 10:05:42;;;;;;;10.30;9.30;;;;;;;22.19;83.57;98352.86;1734812;81;28170;-89
2021/06/26 10:08:09;;;;;;;10.58;7.85;;;;;;;22.23;83.38;98348.31;1734387;82;28138;-89
2021/06/26 10:10:36;;;;;;;9.40;8.25;;;;;;;22.29;83.23;98348.09;1734864;82;28144;-89
2021/06/26 10:13:02;;;;;;;12.75;8.63;;;;;;;22.45;83.14;98350.06;1730528;82;28093;-89
2021/06/26 10:15:32;;;;;;;9.78;8.78;;;;;;;22.59;83.00;98347.05;1734537;81;28112;-89
2021/06/26 10:18:01;;;;;;;13.30;8.20;;;;;;;22.61;82.82;98345.05;1737436;82;28176;-89
2021/06/26 10:20:28;;;;;;;9.55;7.70;;;;;;;22.59;82.64;98340.39;1734121;81;27999;-89
2021/06/26 10:22:58;;;;;;;11.55;7.25;;;;;;;22.58;82.46;98342.76;1732895;82;28112;-89
2021/06/26 10:25:36;;;;;;;8.43;7.53;;;;;;;22.67;82.28;98348.30;1734138;82;28117;-89
2021/06/26 10:28:07;;;;;;;7.95;6.60;;;;;;;22.75;82.12;98339.38;1736776;82;28044;-89
2021/06/26 10:30:34;;;;;;;8.03;6.78;;;;;;;22.84;81.96;98340.45;1734610;81;28102;-89
2021/06/26 10:33:11;;;;;;;7.80;6.97;;;;;;;22.94;81.80;98344.98;1735296;81;28065;-89
2021/06/26 10:35:41;;;;;;;7.92;6.20;;;;;;;23.09;81.68;98346.27;1735628;82;28077;-89
2021/06/26 10:38:10;;;;;;;8.10;6.25;;;;;;;23.28;81.52;98351.52;1714721;82;28087;-89
2021/06/26 10:40:43;;;;;;;7.97;6.60;;;;;;;23.36;81.30;98353.55;1752866;81;28189;-89
2021/06/26 10:43:19;;;;;;;6.90;6.00;;;;;;;23.41;81.10;98354.81;1758610;80;28176;-89
2021/06/26 10:45:48;;;;;;;7.08;5.75;;;;;;;23.35;80.83;98343.88;1758342;81;28007;-89
2021/06/26 10:48:17;;;;;;;8.38;6.20;;;;;;;23.36;80.52;98354.05;1757293;81;28100;-89
2021/06/26 10:50:50;;;;;;;7.00;5.55;;;;;;;23.21;80.18;98359.95;1754839;81;28071;-89
2021/06/26 10:53:25;;;;;;;8.38;6.15;;;;;;;23.02;79.81;98356.57;1757179;81;28073;-89
2021/06/26 10:56:01;;;;;;;8.10;5.15;;;;;;;22.90;79.54;98364.23;1756108;81;28084;-89
2021/06/26 10:58:30;;;;;;;7.35;5.97;;;;;;;22.85;79.35;98370.13;1759475;81;28155;-89
2021/06/26 11:00:56;;;;;;;8.13;7.12;;;;;;;22.78;79.18;98371.05;1758431;81;28196;-89
2021/06/26 11:03:28;;;;;;;11.35;6.72;;;;;;;22.68;79.08;98369.14;1759424;81;28079;-89
2021/06/26 11:05:53;;;;;;;10.55;6.87;;;;;;;22.54;78.96;98371.63;1758525;80;28147;-89
2021/06/26 11:08:21;;;;;;;6.85;6.20;;;;;;;22.26;78.70;98365.27;1761691;80;28132;-90
2021/06/26 11:10:54;;;;;;;10.68;7.45;;;;;;;22.12;78.57;98376.75;1765619;80;28066;-90
2021/06/26 11:13:22;;;;;;;8.00;7.20;;;;;;;21.94;78.46;98379.73;1763571;80;28138;-89
2021/06/26 11:15:50;;;;;;;10.55;8.10;;;;;;;21.88;78.46;98375.09;1762623;80;28221;-89
2021/06/26 11:18:18;;;;;;;12.25;7.87;;;;;;;21.90;78.50;98371.75;1763123;80;27986;-89
2021/06/26 11:20:45;;;;;;;8.45;7.30;;;;;;;21.92;78.55;98369.75;1764158;80;28182;-89
2021/06/26 11:23:18;;;;;;;11.50;7.62;;;;;;;21.94;78.66;98370.41;1764590;80;28059;-89
2021/06/26 11:25:45;;;;;;;6.80;4.90;;;;;;;22.02;78.79;98362.86;1766528;80;28472;-89
2021/06/26 11:28:14;;;;;;;5.17;4.67;;;;;;;22.04;78.86;98366.15;1761851;79;28102;-89